Time;durP1;ratioP1;P1;durP2;ratioP2;P2;SDS_P1;SDS_P2;PMS_P1;PMS_P2;Temp;Humidity;BMP_temperature;BMP_pressure;BME280_temperature;BME280_humidity;BME280_pressure;Samples;Min_cycle;Max_cycle;Signal;HPM_P1;HPM_P2
2022/11/23 00:07:07;;;;;;;;;;;5.20;99.90;;;;;;21350286;27;20023;-80
2022/11/23 00:17:08;;;;;;;4.30;1.47;;;5.10;99.90;;;;;;21327084;27;20064;-79
2022/11/23 00:27:09;;;;;;;4.93;1.50;;;5.00;99.90;;;;;;21345666;27;20238;-80
2022/11/23 00:37:10;;;;;;;5.43;2.10;;;4.80;99.90;;;;;;21344998;27;20037;-81
2022/11/23 00:47:10;;;;;;;8.30;2.20;;;4.50;99.90;;;;;;21343597;27;20617;-78
2022/11/23 00:57:11;;;;;;;10.15;2.10;;;4.30;99.90;;;;;;21343542;27;20564;-79
2022/11/23 01:07:12;;;;;;;7.40;1.90;;;4.00;99.90;;;;;;21326543;27;20030;-80
2022/11/23 01:17:14;;;;;;;3.80;1.80;;;3.80;99.90;;;;;;21307717;27;20033;-79
2022/11/23 01:27:14;;;;;;;6.00;2.40;;;3.80;99.90;;;;;;21342794;27;20031;-80
2022/11/23 01:37:15;;;;;;;6.65;1.58;;;3.80;99.90;;;;;;21343132;27;20420;-80
2022/11/23 01:47:18;;;;;;;10.27;2.08;;;3.40;99.90;;;;;;21324521;27;20508;-78
2022/11/23 01:57:32;;;;;;;5.03;1.95;;;3.00;99.90;;;;;;21322376;27;20031;-79
2022/11/23 02:07:34;;;;;;;4.13;1.92;;;3.10;99.90;;;;;;21321551;27;20030;-79
2022/11/23 02:17:35;;;;;;;6.72;2.15;;;2.90;99.90;;;;;;21339743;27;20062;-80
2022/11/23 02:27:36;;;;;;;3.90;1.88;;;3.10;99.90;;;;;;21303036;27;20035;-80
2022/11/23 02:37:38;;;;;;;6.43;1.80;;;3.10;99.90;;;;;;21329973;27;20031;-79
2022/11/23 02:47:39;;;;;;;7.85;2.58;;;3.20;99.90;;;;;;21337411;27;20019;-80
2022/11/23 02:57:42;;;;;;;6.32;2.25;;;3.40;99.90;;;;;;21337359;27;20037;-79
2022/11/23 03:07:44;;;;;;;8.73;2.40;;;3.60;99.90;;;;;;21333903;27;20041;-79
2022/11/23 03:17:46;;;;;;;6.10;2.38;;;3.60;99.90;;;;;;21249098;27;20031;-80
2022/11/23 03:27:49;;;;;;;3.90;2.25;;;3.30;99.90;;;;;;21271117;27;20026;-79
2022/11/23 03:37:50;;;;;;;6.40;1.75;;;3.00;99.90;;;;;;21332279;27;20033;-80
2022/11/23 03:47:51;;;;;;;6.72;2.30;;;3.00;99.90;;;;;;21313117;27;20034;-79
2022/11/23 03:57:54;;;;;;;11.38;2.90;;;3.00;99.90;;;;;;21330449;27;20556;-79
2022/11/23 04:07:55;;;;;;;9.93;3.00;;;2.70;99.90;;;;;;21329569;27;20027;-79
2022/11/23 04:17:59;;;;;;;5.65;3.05;;;2.80;99.90;;;;;;21331202;27;20048;-80
2022/11/23 04:28:00;;;;;;;8.88;2.70;;;2.90;99.90;;;;;;21337425;27;20023;-80
2022/11/23 04:38:01;;;;;;;6.63;3.13;;;2.70;99.90;;;;;;21327297;27;20027;-80
2022/11/23 04:48:05;;;;;;;10.43;2.83;;;2.60;99.90;;;;;;21340668;27;20040;-79
2022/11/23 04:58:07;;;;;;;8.60;2.90;;;2.70;99.90;;;;;;21306899;27;20022;-77
2022/11/23 05:08:09;;;;;;;11.30;2.83;;;2.60;99.90;;;;;;21327838;27;20031;-78
2022/11/23 05:18:45;;;;;;;10.88;3.83;;;2.60;99.90;;;;;;21308202;27;20042;-78
2022/11/23 05:28:46;;;;;;;16.20;4.75;;;2.60;99.90;;;;;;21223568;27;20414;-81
2022/11/23 05:38:50;;;;;;;18.05;6.85;;;2.60;99.90;;;;;;21235149;27;20023;-79
2022/11/23 05:48:59;;;;;;;13.93;6.95;;;2.70;99.90;;;;;;21238046;27;20596;-80
2022/11/23 05:59:04;;;;;;;20.95;8.35;;;2.70;99.90;;;;;;21238064;27;20023;-80
2022/11/23 06:09:06;;;;;;;16.70;7.78;;;2.80;99.90;;;;;;21242335;27;20032;-79
2022/11/23 06:19:09;;;;;;;15.68;7.13;;;2.70;99.90;;;;;;21279228;27;20030;-80
2022/11/23 06:29:13;;;;;;;14.18;5.97;;;2.60;99.90;;;;;;21341381;27;20172;-78
2022/11/23 06:39:14;;;;;;;13.52;5.20;;;2.30;99.90;;;;;;21334078;27;20034;-80
2022/11/23 06:49:18;;;;;;;8.63;4.63;;;1.70;99.90;;;;;;21311783;27;20623;-80
2022/11/23 06:59:22;;;;;;;10.15;4.57;;;1.90;99.90;;;;;;21310804;27;20397;-80
2022/11/23 07:09:23;;;;;;;9.55;4.57;;;1.50;99.90;;;;;;21344879;27;20031;-80
2022/11/23 07:19:34;;;;;;;39.30;5.80;;;1.70;99.90;;;;;;21327291;27;20151;-79
2022/11/23 07:29:35;;;;;;;15.43;5.70;;;1.70;99.90;;;;;;21326409;27;20038;-79
2022/11/23 07:39:36;;;;;;;439.35;21.45;;;1.80;99.90;;;;;;21345444;27;20027;-79
2022/11/23 07:49:37;;;;;;;146.65;11.20;;;2.00;99.90;;;;;;21342857;27;20498;-79
2022/11/23 07:59:38;;;;;;;435.70;28.05;;;2.20;99.90;;;;;;21323512;27;20031;-79
2022/11/23 08:09:39;;;;;;;510.50;31.27;;;2.30;99.90;;;;;;21342696;27;20113;-79
2022/11/23 08:19:40;;;;;;;540.80;39.33;;;2.50;99.90;;;;;;21343205;27;20031;-79
2022/11/23 08:29:41;;;;;;;274.65;19.20;;;2.70;99.90;;;;;;21338738;27;20083;-80
2022/11/23 08:39:42;;;;;;;111.80;14.35;;;2.90;99.90;;;;;;21341548;27;20030;-79
2022/11/23 08:49:43;;;;;;;35.63;13.38;;;3.50;99.90;;;;;;21308124;27;20034;-80
2022/11/23 08:59:43;;;;;;;19.30;9.88;;;5.40;99.90;;;;;;21340120;27;20365;-79
2022/11/23 09:09:44;;;;;;;;;;;6.80;99.90;;;;;;21340764;27;20034;-80
2022/11/23 09:19:45;;;;;;;12.07;6.77;;;8.20;99.90;;;;;;21311031;27;20002;-79
2022/11/23 09:29:46;;;;;;;15.40;7.00;;;8.70;99.90;;;;;;21237898;27;20291;-79
2022/11/23 09:39:46;;;;;;;14.87;8.20;;;7.70;99.90;;;;;;21255891;27;20026;-79
2022/11/23 09:50:06;;;;;;;58.67;9.43;;;7.20;99.90;;;;;;21236876;27;20034;-79
2022/11/23 10:00:17;;;;;;;15.65;7.88;;;8.30;99.90;;;;;;21252656;27;20031;-79
2022/11/23 10:10:28;;;;;;;;;;;10.20;99.90;;;;;;21231730;27;20031;-80
2022/11/23 10:20:41;;;;;;;9.98;5.53;;;11.50;99.90;;;;;;21283243;27;19911;-81
2022/11/23 10:30:44;;;;;;;9.15;5.03;;;12.50;99.90;;;;;;21302426;27;20027;-80
2022/11/23 10:40:57;;;;;;;12.25;6.10;;;12.10;99.90;;;;;;21329195;27;20061;-81
2022/11/23 10:51:18;;;;;;;10.02;5.60;;;10.80;99.90;;;;;;21353658;27;20393;-80
2022/11/23 11:01:23;;;;;;;7.17;4.13;;;10.20;99.90;;;;;;21328064;27;20038;-81
2022/11/23 11:11:30;;;;;;;10.23;5.28;;;10.40;99.90;;;;;;21371888;27;20056;-81
2022/11/23 11:21:39;;;;;;;8.13;4.93;;;10.90;99.90;;;;;;21357418;27;20034;-82
2022/11/23 11:32:01;;;;;;;8.38;3.63;;;10.60;99.90;;;;;;21347187;27;20057;-82
2022/11/23 11:42:07;;;;;;;3.90;2.40;;;11.30;99.90;;;;;;21346317;27;20521;-82
2022/11/23 11:52:22;;;;;;;4.43;2.35;;;11.50;99.90;;;;;;21327511;27;20280;-83
2022/11/23 12:02:27;;;;;;;4.13;2.00;;;12.00;99.90;;;;;;21329307;27;20065;-83
2022/11/23 12:12:30;;;;;;;7.40;2.30;;;13.00;99.90;;;;;;21349036;27;20031;-83
2022/11/23 12:22:55;;;;;;;3.75;1.70;;;15.00;99.90;;;;;;21351365;27;20038;-82
2022/11/23 12:33:07;;;;;;;5.55;2.83;;;15.40;99.90;;;;;;21333316;27;20045;-82
2022/11/23 12:43:22;;;;;;;3.58;1.63;;;14.10;99.90;;;;;;21335614;27;20030;-83
2022/11/23 12:53:24;;;;;;;46.33;15.88;;;14.90;99.90;;;;;;21340625;27;20046;-83
2022/11/23 13:03:31;;;;;;;5.83;2.07;;;15.70;99.90;;;;;;21324278;27;20030;-83
2022/11/23 13:14:17;;;;;;;5.50;2.20;;;15.00;99.90;;;;;;21323034;27;20520;-83
2022/11/23 13:24:30;;;;;;;8.82;2.25;;;12.90;99.90;;;;;;21263383;27;20122;-82
2022/11/23 13:34:46;;;;;;;5.65;2.30;;;11.90;99.90;;;;;;21321606;27;20094;-82
2022/11/23 13:44:46;;;;;;;4.85;2.03;;;11.60;99.90;;;;;;21341044;27;20031;-81
2022/11/23 13:54:56;;;;;;;5.63;3.13;;;11.30;99.90;;;;;;21339619;27;20485;-81
2022/11/23 14:05:30;;;;;;;4.93;2.92;;;11.00;99.90;;;;;;21342698;27;20035;-81
2022/11/23 14:15:37;;;;;;;6.85;3.00;;;10.70;99.90;;;;;;21345085;27;20397;-82
2022/11/23 14:26:11;;;;;;;6.18;2.17;;;10.40;99.90;;;;;;21327501;27;20041;-82
2022/11/23 14:36:18;;;;;;;4.47;1.50;;;10.30;99.90;;;;;;21363542;27;20512;-82
2022/11/23 14:46:24;;;;;;;3.42;1.42;;;9.60;99.90;;;;;;21363752;27;20481;-81
2022/11/23 14:56:27;;;;;;;3.53;2.13;;;9.50;99.90;;;;;;21364042;27;20109;-80
2022/11/23 15:06:34;;;;;;;35.22;12.85;;;9.50;99.90;;;;;;21335661;27;20042;-80
2022/11/23 15:16:41;;;;;;;2.72;1.55;;;9.50;99.90;;;;;;21353067;27;20038;-80
2022/11/23 15:26:43;;;;;;;1.65;0.90;;;9.20;99.90;;;;;;21250683;27;20058;-80
2022/11/23 15:36:45;;;;;;;2.55;0.80;;;8.90;99.90;;;;;;21273619;27;20027;-80
2022/11/23 15:46:48;;;;;;;1.50;0.90;;;8.70;99.90;;;;;;21236166;27;20088;-80
2022/11/23 15:56:54;;;;;;;1.80;1.08;;;8.60;99.90;;;;;;21253532;27;20504;-81
2022/11/23 16:06:56;;;;;;;2.10;1.10;;;8.10;99.90;;;;;;21259233;27;20031;-80
2022/11/23 16:17:22;;;;;;;5.38;2.90;;;7.50;99.90;;;;;;21259353;27;20398;-79
2022/11/23 16:27:24;;;;;;;6.40;1.40;;;7.50;99.90;;;;;;21241589;27;20027;-80
2022/11/23 16:37:25;;;;;;;3.28;1.27;;;6.90;99.90;;;;;;21241836;27;20038;-80
2022/11/23 16:47:27;;;;;;;7.30;2.30;;;6.80;99.90;;;;;;21255815;27;20023;-79
2022/11/23 16:57:34;;;;;;;4.70;2.05;;;6.90;99.90;;;;;;21223031;27;20119;-80
2022/11/23 17:07:35;;;;;;;6.22;2.33;;;6.60;99.90;;;;;;21248235;27;20027;-80
2022/11/23 17:17:35;;;;;;;16.80;5.57;;;6.80;99.90;;;;;;21237840;27;20054;-79
2022/11/23 17:27:39;;;;;;;2.57;1.83;;;7.00;99.90;;;;;;21263232;27;20039;-79
2022/11/23 17:37:40;;;;;;;3.25;2.03;;;6.90;99.90;;;;;;21263486;27;20068;-80
2022/11/23 17:47:43;;;;;;;5.50;1.80;;;6.90;99.90;;;;;;21259932;27;20027;-79
2022/11/23 17:57:44;;;;;;;3.67;1.80;;;7.00;99.90;;;;;;21204795;27;20074;-81
2022/11/23 18:07:45;;;;;;;6.23;3.23;;;7.00;99.90;;;;;;21232846;27;20042;-80
2022/11/23 18:17:45;;;;;;;34.55;12.73;;;6.90;99.90;;;;;;21229395;27;20405;-81
2022/11/23 18:27:46;;;;;;;7.63;3.97;;;6.60;99.90;;;;;;21246147;27;20027;-80
2022/11/23 18:37:47;;;;;;;6.80;3.38;;;6.50;99.90;;;;;;21227869;27;20035;-80
2022/11/23 18:47:48;;;;;;;8.77;3.70;;;6.60;99.90;;;;;;21185650;27;20131;-80
2022/11/23 18:57:53;;;;;;;10.33;5.67;;;6.60;99.90;;;;;;21176646;28;20038;-81
2022/11/23 19:07:56;;;;;;;8.68;4.93;;;6.50;99.90;;;;;;21226075;28;20288;-81
2022/11/23 19:17:56;;;;;;;7.95;4.20;;;6.50;99.90;;;;;;21214811;27;20122;-80
2022/11/23 19:27:59;;;;;;;8.13;4.53;;;6.70;99.90;;;;;;21299218;27;20027;-79
2022/11/23 19:38:00;;;;;;;10.98;2.92;;;6.70;99.90;;;;;;21347099;27;20079;-78
2022/11/23 19:48:00;;;;;;;3.83;2.07;;;7.00;99.90;;;;;;21346690;27;20022;-80
2022/11/23 19:58:01;;;;;;;9.73;2.00;;;7.10;99.90;;;;;;21326247;27;20070;-80
2022/11/23 20:08:02;;;;;;;8.43;3.13;;;7.40;99.90;;;;;;21317257;27;20296;-80
2022/11/23 20:18:03;;;;;;;8.27;1.80;;;7.40;99.90;;;;;;21320442;27;20033;-77
2022/11/23 20:28:04;;;;;;;3.93;1.93;;;7.60;99.90;;;;;;21283947;27;20276;-79
2022/11/23 20:38:05;;;;;;;;;;;7.70;99.90;;;;;;21275039;27;20435;-78
2022/11/23 20:48:06;;;;;;;5.55;1.40;;;7.40;99.90;;;;;;21273225;27;19918;-80
2022/11/23 20:58:06;;;;;;;5.87;1.40;;;7.30;99.90;;;;;;21258189;27;20095;-80
2022/11/23 21:08:12;;;;;;;9.80;2.00;;;7.10;99.90;;;;;;21320477;27;20034;-79
2022/11/23 21:18:13;;;;;;;4.38;1.08;;;7.00;99.90;;;;;;21325902;27;20031;-79
2022/11/23 21:28:14;;;;;;;5.43;2.38;;;6.90;99.90;;;;;;21257043;27;20034;-80
2022/11/23 21:38:15;;;;;;;2.70;0.68;;;6.80;99.90;;;;;;21256898;27;20096;-78
2022/11/23 21:48:16;;;;;;;;;;;6.70;99.90;;;;;;21256209;27;20084;-78
2022/11/23 21:58:16;;;;;;;9.80;1.83;;;6.50;99.90;;;;;;21255055;27;19998;-78
2022/11/23 22:08:17;;;;;;;2.73;1.40;;;6.60;99.90;;;;;;21235748;27;20281;-79
2022/11/23 22:18:18;;;;;;;4.80;0.77;;;6.50;99.90;;;;;;21231934;27;20287;-80
2022/11/23 22:28:19;;;;;;;8.20;0.87;;;6.50;99.90;;;;;;21249453;28;20337;-79
2022/11/23 22:38:19;;;;;;;4.63;1.60;;;6.50;99.90;;;;;;21227984;28;20268;-79
2022/11/23 22:48:20;;;;;;;3.03;1.43;;;6.60;99.90;;;;;;21225301;28;20046;-79
2022/11/23 22:58:21;;;;;;;4.10;1.30;;;6.70;99.90;;;;;;21239839;27;20061;-79
2022/11/23 23:08:23;;;;;;;3.17;0.83;;;6.70;99.90;;;;;;21259964;27;20775;-79
2022/11/23 23:18:24;;;;;;;4.15;0.90;;;6.60;99.90;;;;;;21240875;27;20031;-79
2022/11/23 23:28:25;;;;;;;2.55;1.35;;;6.60;99.90;;;;;;21262936;27;20505;-79
2022/11/23 23:38:26;;;;;;;4.07;1.97;;;6.50;99.90;;;;;;21267581;27;20542;-79
2022/11/23 23:48:28;;;;;;;5.85;1.05;;;6.30;99.90;;;;;;21267688;27;20284;-79
2022/11/23 23:58:29;;;;;;;2.95;1.33;;;6.10;99.90;;;;;;21252581;27;20035;-80
